createdAt,value
2022-12-25T18:54:57.204Z,74.85
2022-12-25T18:56:19.330Z,68.63
2022-12-25T18:57:41.172Z,72.55
2022-12-25T18:59:02.780Z,61.42
2022-12-25T19:00:25.125Z,53.38
2022-12-25T19:01:47.111Z,56.90
2022-12-25T19:03:09.513Z,56.22
2022-12-25T19:04:32.816Z,61.85
2022-12-25T19:05:55.248Z,60.53
2022-12-25T19:07:17.210Z,61.05
2022-12-25T19:08:39.103Z,62.47
2022-12-25T19:10:01.103Z,58.42
2022-12-25T19:11:23.733Z,64.53
2022-12-25T19:12:45.715Z,65.05
2022-12-25T19:14:09.396Z,64.57
2022-12-25T19:15:31.011Z,71.82
2022-12-25T19:16:54.277Z,75.22
2022-12-25T19:18:16.334Z,76.68
2022-12-25T19:19:39.336Z,75.75
2022-12-25T19:21:05.939Z,79.93
2022-12-25T19:22:28.159Z,77.35
2022-12-25T19:23:49.892Z,70.15
2022-12-25T19:25:11.753Z,82.15
2022-12-25T19:26:36.258Z,82.72
2022-12-25T19:27:58.038Z,89.10
2022-12-25T19:29:19.980Z,87.07
2022-12-25T19:30:41.735Z,97.20
2022-12-25T19:32:03.885Z,113.70
2022-12-25T19:33:25.875Z,127.15
2022-12-25T19:34:47.731Z,148.23
2022-12-25T19:36:13.095Z,144.68
2022-12-25T19:37:35.096Z,145.48
2022-12-25T19:38:57.022Z,197.30
2022-12-25T19:40:19.208Z,213.70
2022-12-25T19:41:41.193Z,207.13
2022-12-25T19:43:03.126Z,223.25
2022-12-25T19:44:25.027Z,347.40
2022-12-25T19:45:46.962Z,399.50
2022-12-25T19:47:10.919Z,352.65
2022-12-25T19:48:34.075Z,266.88
2022-12-25T19:50:00.858Z,233.65
2022-12-25T19:51:27.064Z,233.73
2022-12-25T19:52:48.986Z,221.30
2022-12-25T19:54:17.240Z,235.07
2022-12-25T19:55:39.076Z,234.20
2022-12-25T19:57:01.417Z,225.63
2022-12-25T19:58:24.161Z,217.00
2022-12-25T19:59:48.765Z,222.80
2022-12-25T20:01:16.746Z,197.05
2022-12-25T20:02:38.795Z,196.18
2022-12-25T20:04:01.105Z,185.90
2022-12-25T20:05:23.303Z,169.27
2022-12-25T20:06:45.871Z,162.10
2022-12-25T20:08:07.924Z,155.60
2022-12-25T20:09:31.091Z,159.98
2022-12-25T20:10:53.160Z,157.45
2022-12-25T20:12:16.368Z,159.82
2022-12-25T20:13:38.777Z,143.57
2022-12-25T20:15:01.083Z,153.27
2022-12-25T20:16:23.782Z,295.30
2022-12-25T20:17:47.690Z,262.23
2022-12-25T20:19:14.464Z,238.15
2022-12-25T20:20:36.636Z,231.40
2022-12-25T20:21:58.845Z,227.68
2022-12-25T20:23:20.896Z,227.45
2022-12-25T20:24:42.748Z,223.45
2022-12-25T20:26:05.511Z,206.32
2022-12-25T20:27:27.551Z,209.88
2022-12-25T20:28:49.496Z,207.88
2022-12-25T20:30:11.631Z,208.63
2022-12-25T20:31:35.705Z,202.50
2022-12-25T20:32:57.952Z,209.85
2022-12-25T20:34:20.044Z,204.15
2022-12-25T20:35:46.751Z,210.85
2022-12-25T20:37:08.750Z,205.80
2022-12-25T20:38:31.305Z,204.68
2022-12-25T20:39:53.015Z,205.90
2022-12-25T20:41:29.223Z,201.55
2022-12-25T20:42:51.486Z,213.30
2022-12-25T20:44:13.484Z,211.18
2022-12-25T20:45:39.981Z,212.15
2022-12-25T20:47:03.557Z,222.45
2022-12-25T20:48:25.564Z,221.25
2022-12-25T20:49:47.881Z,215.05
2022-12-25T20:51:11.006Z,203.73
2022-12-25T20:52:32.677Z,176.25
2022-12-25T20:53:55.555Z,200.80
2022-12-25T20:55:17.326Z,180.15
2022-12-25T20:56:40.358Z,185.35
2022-12-25T20:58:01.996Z,169.30
2022-12-25T20:59:24.985Z,175.73
2022-12-25T21:00:46.882Z,155.57
2022-12-25T21:02:11.593Z,164.50
2022-12-25T21:03:54.500Z,162.13
2022-12-25T21:05:16.601Z,139.82
2022-12-25T21:06:38.313Z,134.68
2022-12-25T21:08:00.170Z,125.63
2022-12-25T21:09:22.110Z,115.57
2022-12-25T21:10:46.245Z,109.88
2022-12-25T21:12:08.354Z,106.10
2022-12-25T21:13:32.808Z,93.82
2022-12-25T21:14:54.477Z,102.75
2022-12-25T21:16:22.274Z,128.20
2022-12-25T21:17:44.407Z,140.00
2022-12-25T21:19:06.477Z,141.55
2022-12-25T21:20:28.346Z,156.93
2022-12-25T21:21:51.117Z,164.13
2022-12-25T21:23:13.338Z,155.02
2022-12-25T21:24:36.348Z,182.13
2022-12-25T21:25:58.354Z,221.55
2022-12-25T21:27:20.200Z,231.00
2022-12-25T21:28:41.897Z,248.48
2022-12-25T21:30:15.313Z,226.98
2022-12-25T21:31:56.222Z,224.73
2022-12-25T21:33:36.386Z,243.55
2022-12-25T21:34:58.076Z,248.05
2022-12-25T21:36:34.402Z,271.42
2022-12-25T21:37:56.014Z,262.13
2022-12-25T21:39:17.888Z,246.18
2022-12-25T21:40:39.897Z,249.38
2022-12-25T21:42:04.521Z,233.27
2022-12-25T21:43:26.308Z,234.27
2022-12-25T21:44:49.009Z,221.88
2022-12-25T21:46:14.956Z,237.25
2022-12-25T21:48:01.423Z,216.23
2022-12-25T21:49:38.414Z,204.98
2022-12-25T21:51:30.294Z,192.80
2022-12-25T21:52:52.912Z,190.82
2022-12-25T21:54:16.062Z,199.25
2022-12-25T21:55:37.980Z,188.82
2022-12-25T21:57:00.005Z,178.00
2022-12-25T21:58:21.953Z,175.43
2022-12-25T21:59:43.987Z,164.10
2022-12-25T22:01:06.282Z,164.82
2022-12-25T22:02:28.535Z,147.43
2022-12-25T22:03:50.486Z,151.10
2022-12-25T22:05:32.308Z,140.50
2022-12-25T22:07:12.851Z,139.13
2022-12-25T22:08:34.623Z,151.30
2022-12-25T22:09:56.157Z,155.75
2022-12-25T22:11:36.515Z,162.77
2022-12-25T22:13:17.116Z,152.93
2022-12-25T22:14:54.973Z,156.57
2022-12-25T22:16:36.118Z,158.68
2022-12-25T22:18:16.427Z,166.65
2022-12-25T22:19:44.984Z,170.95
2022-12-25T22:21:07.654Z,181.88
2022-12-25T22:22:30.955Z,192.65
2022-12-25T22:23:53.102Z,173.57
2022-12-25T22:25:15.302Z,159.15
2022-12-25T22:26:37.250Z,148.23
2022-12-25T22:27:59.519Z,136.02
2022-12-25T22:29:22.360Z,138.13
2022-12-25T22:30:44.467Z,123.22
2022-12-25T22:32:07.128Z,127.43
2022-12-25T22:33:30.641Z,122.82
2022-12-25T22:34:52.664Z,119.13
2022-12-25T22:36:14.253Z,108.25
2022-12-25T22:37:36.424Z,86.93
2022-12-25T22:38:58.269Z,83.00
2022-12-25T22:40:21.057Z,70.63
2022-12-25T22:41:42.529Z,63.67
2022-12-25T22:43:04.370Z,65.18
2022-12-25T22:44:28.518Z,63.45
2022-12-25T22:45:50.544Z,67.93
2022-12-25T22:47:12.192Z,76.57
2022-12-25T22:48:34.231Z,88.22
2022-12-25T22:49:55.990Z,104.13
2022-12-25T22:51:18.056Z,121.38
2022-12-25T22:52:40.042Z,130.93
2022-12-25T22:54:03.804Z,143.38
2022-12-25T22:55:25.724Z,140.20
2022-12-25T22:56:52.315Z,131.98
2022-12-25T22:58:14.620Z,148.20
2022-12-25T22:59:36.511Z,148.80
2022-12-25T23:00:57.933Z,146.98
2022-12-25T23:02:20.176Z,151.77
2022-12-25T23:03:43.140Z,159.43
2022-12-25T23:05:05.217Z,160.27
2022-12-25T23:06:27.121Z,152.10
2022-12-25T23:07:48.862Z,147.25
2022-12-25T23:09:18.899Z,145.57
2022-12-25T23:10:43.965Z,138.65
2022-12-25T23:12:06.412Z,144.88
2022-12-25T23:13:46.755Z,143.30
2022-12-25T23:15:09.234Z,140.77
2022-12-25T23:16:31.230Z,150.40
2022-12-25T23:18:11.144Z,155.50
2022-12-25T23:19:51.562Z,181.90
2022-12-25T23:21:33.756Z,196.80
2022-12-25T23:23:14.181Z,203.73
2022-12-25T23:24:54.269Z,194.82
2022-12-25T23:26:17.745Z,178.60
2022-12-25T23:27:40.070Z,165.50
2022-12-25T23:29:20.648Z,123.30
2022-12-25T23:30:42.206Z,83.63
2022-12-25T23:32:17.611Z,79.97
2022-12-25T23:33:39.236Z,80.93
2022-12-25T23:35:00.943Z,80.00
2022-12-25T23:36:23.749Z,67.13
2022-12-25T23:37:46.695Z,55.00
2022-12-25T23:39:10.344Z,63.67
2022-12-25T23:40:33.003Z,63.15
2022-12-25T23:41:55.131Z,67.20
2022-12-25T23:43:17.158Z,77.55
2022-12-25T23:44:38.971Z,71.32
2022-12-25T23:46:00.863Z,51.05
2022-12-25T23:47:22.847Z,50.33
2022-12-25T23:48:44.740Z,49.50
2022-12-25T23:50:06.793Z,42.08
2022-12-25T23:51:28.678Z,49.70
2022-12-25T23:52:50.547Z,47.13
2022-12-25T23:54:15.849Z,55.20
2022-12-25T23:55:37.371Z,51.28
2022-12-25T23:56:59.985Z,53.15
2022-12-25T23:58:21.929Z,43.72
2022-12-25T23:59:43.751Z,42.15
